createdAt,value
2019-06-27T00:01:04.738Z,18.77
2019-06-27T00:03:33.268Z,19.03
2019-06-27T00:06:01.503Z,18.03
2019-06-27T00:08:29.710Z,18.83
2019-06-27T00:10:58.023Z,19.57
2019-06-27T00:13:26.219Z,18.70
2019-06-27T00:15:54.758Z,16.73
2019-06-27T00:18:23.382Z,18.37
2019-06-27T00:20:53.166Z,18.33
2019-06-27T00:23:21.814Z,16.63
2019-06-27T00:25:50.424Z,17.97
2019-06-27T00:28:18.983Z,18.03
2019-06-27T00:30:47.612Z,17.93
2019-06-27T00:33:15.957Z,18.47
2019-06-27T00:35:44.531Z,16.60
2019-06-27T00:38:12.807Z,17.37
2019-06-27T00:40:40.977Z,16.40
2019-06-27T00:43:09.458Z,17.20
2019-06-27T00:45:37.709Z,16.53
2019-06-27T00:48:05.281Z,17.57
2019-06-27T00:50:33.216Z,16.80
2019-06-27T00:53:01.747Z,17.70
2019-06-27T00:55:29.588Z,17.00
2019-06-27T00:57:58.244Z,18.30
2019-06-27T01:00:26.837Z,18.63
2019-06-27T01:02:55.123Z,17.87
2019-06-27T01:05:22.916Z,19.17
2019-06-27T01:07:51.166Z,19.80
2019-06-27T01:10:19.358Z,18.60
2019-06-27T01:12:47.281Z,19.43
2019-06-27T01:15:15.400Z,18.43
2019-06-27T01:17:43.988Z,17.57
2019-06-27T01:20:13.367Z,17.13
2019-06-27T01:22:42.001Z,15.33
2019-06-27T01:25:09.543Z,16.10
2019-06-27T01:27:38.142Z,15.67
2019-06-27T01:30:07.120Z,15.63
2019-06-27T01:32:35.718Z,17.13
2019-06-27T01:35:04.470Z,16.40
2019-06-27T01:37:32.779Z,15.83
2019-06-27T01:40:00.678Z,16.10
2019-06-27T01:42:28.942Z,16.77
2019-06-27T01:45:01.834Z,17.67
2019-06-27T01:47:30.445Z,17.00
2019-06-27T01:49:58.935Z,16.50
2019-06-27T01:52:27.097Z,16.63
2019-06-27T01:54:54.564Z,18.57
2019-06-27T01:57:22.492Z,17.77
2019-06-27T01:59:51.123Z,18.90
2019-06-27T02:02:19.318Z,18.93
2019-06-27T02:04:47.572Z,17.23
2019-06-27T02:07:15.784Z,17.60
2019-06-27T02:09:44.324Z,18.17
2019-06-27T02:12:12.114Z,17.60
2019-06-27T02:14:40.383Z,17.37
2019-06-27T02:17:08.920Z,18.43
2019-06-27T02:19:37.265Z,16.43
2019-06-27T02:22:04.818Z,15.90
2019-06-27T02:24:32.775Z,16.30
2019-06-27T02:27:01.013Z,15.60
2019-06-27T02:29:29.579Z,16.40
2019-06-27T02:31:58.089Z,16.43
2019-06-27T02:34:26.645Z,17.67
2019-06-27T02:36:55.370Z,14.97
2019-06-27T02:39:23.944Z,16.10
2019-06-27T02:41:51.729Z,16.43
2019-06-27T02:44:20.314Z,16.00
2019-06-27T02:46:48.629Z,17.10
2019-06-27T02:49:16.864Z,14.67
2019-06-27T02:51:44.777Z,15.77
2019-06-27T02:54:12.713Z,16.63
2019-06-27T02:56:41.390Z,17.33
2019-06-27T02:59:09.304Z,16.60
2019-06-27T03:01:37.866Z,15.40
2019-06-27T03:04:05.786Z,15.83
2019-06-27T03:06:34.039Z,16.80
2019-06-27T03:09:02.630Z,16.30
2019-06-27T03:11:30.992Z,17.47
2019-06-27T03:13:59.196Z,16.17
2019-06-27T03:16:27.781Z,15.90
2019-06-27T03:18:56.169Z,16.20
2019-06-27T03:21:24.451Z,16.40
2019-06-27T03:23:52.903Z,16.53
2019-06-27T03:26:21.115Z,15.90
2019-06-27T03:28:53.174Z,19.50
2019-06-27T03:31:19.521Z,16.93
2019-06-27T03:33:48.053Z,15.60
2019-06-27T03:36:16.290Z,14.93
2019-06-27T03:38:44.492Z,17.23
2019-06-27T03:41:13.117Z,15.30
2019-06-27T03:43:41.639Z,16.40
2019-06-27T03:46:09.926Z,17.37
2019-06-27T03:48:38.528Z,15.77
2019-06-27T03:51:06.722Z,16.73
2019-06-27T03:53:35.277Z,16.07
2019-06-27T03:56:03.558Z,17.50
2019-06-27T03:58:31.439Z,17.00
2019-06-27T04:00:58.974Z,17.10
2019-06-27T04:03:26.551Z,16.30
2019-06-27T04:05:54.450Z,16.90
2019-06-27T04:08:23.033Z,18.70
2019-06-27T04:10:51.669Z,16.80
2019-06-27T04:13:19.501Z,17.17
2019-06-27T04:15:48.073Z,17.00
2019-06-27T04:18:16.682Z,16.57
2019-06-27T04:20:44.542Z,18.13
2019-06-27T04:23:12.755Z,16.93
2019-06-27T04:25:41.006Z,17.53
2019-06-27T04:28:08.600Z,18.33
2019-06-27T04:30:36.752Z,16.50
2019-06-27T04:33:05.032Z,17.53
2019-06-27T04:35:33.731Z,17.93
2019-06-27T04:38:01.903Z,17.83
2019-06-27T04:40:30.395Z,22.07
2019-06-27T04:42:58.624Z,21.03
2019-06-27T04:45:27.255Z,18.23
2019-06-27T04:47:55.194Z,18.73
2019-06-27T04:50:23.830Z,17.40
2019-06-27T04:52:52.112Z,17.33
2019-06-27T04:55:20.086Z,17.23
2019-06-27T04:57:48.003Z,18.83
2019-06-27T05:00:24.756Z,18.43
2019-06-27T05:02:53.163Z,17.53
2019-06-27T05:05:21.741Z,19.23
2019-06-27T05:07:49.675Z,17.47
2019-06-27T05:10:18.265Z,17.37
2019-06-27T05:12:46.786Z,17.63
2019-06-27T05:15:14.942Z,18.20
2019-06-27T05:17:43.115Z,17.87
2019-06-27T05:20:11.477Z,17.40
2019-06-27T05:22:40.009Z,17.33
2019-06-27T05:25:07.734Z,17.40
2019-06-27T05:27:35.931Z,17.03
2019-06-27T05:30:09.230Z,18.20
2019-06-27T05:32:33.619Z,18.40
2019-06-27T05:35:02.260Z,17.27
2019-06-27T05:37:30.641Z,17.00
2019-06-27T05:39:58.231Z,16.90
2019-06-27T05:42:26.485Z,17.03
2019-06-27T05:44:55.015Z,15.80
2019-06-27T05:47:23.626Z,16.23
2019-06-27T05:49:51.518Z,16.07
2019-06-27T05:52:20.079Z,17.77
2019-06-27T05:54:47.972Z,18.00
2019-06-27T05:57:16.157Z,17.20
2019-06-27T05:59:44.770Z,17.13
2019-06-27T06:02:13.319Z,17.57
2019-06-27T06:04:41.921Z,18.13
2019-06-27T06:07:09.801Z,17.37
2019-06-27T06:09:37.325Z,18.27
2019-06-27T06:12:05.528Z,18.63
2019-06-27T06:14:34.049Z,18.57
2019-06-27T06:17:02.415Z,18.03
2019-06-27T06:19:30.277Z,17.37
2019-06-27T06:21:58.865Z,17.43
2019-06-27T06:24:27.031Z,16.20
2019-06-27T06:26:55.564Z,17.50
2019-06-27T06:29:23.392Z,16.93
2019-06-27T06:31:52.109Z,17.20
2019-06-27T06:34:20.227Z,16.70
2019-06-27T06:36:48.132Z,17.17
2019-06-27T06:39:15.978Z,16.80
2019-06-27T06:41:44.681Z,15.63
2019-06-27T06:44:12.172Z,16.20
2019-06-27T06:46:40.151Z,15.53
2019-06-27T06:49:08.011Z,16.65
2019-06-27T06:51:36.293Z,15.75
2019-06-27T06:54:04.594Z,15.63
2019-06-27T06:56:33.221Z,14.13
2019-06-27T06:59:01.858Z,15.20
2019-06-27T07:01:30.074Z,15.83
2019-06-27T07:03:58.805Z,16.20
2019-06-27T07:06:27.269Z,16.75
2019-06-27T07:08:55.928Z,17.00
2019-06-27T07:11:24.594Z,16.80
2019-06-27T07:13:53.199Z,17.17
2019-06-27T07:16:21.682Z,16.62
2019-06-27T07:18:50.367Z,17.27
2019-06-27T07:21:18.252Z,17.05
2019-06-27T07:23:46.770Z,17.70
2019-06-27T07:26:15.398Z,17.77
2019-06-27T07:28:43.787Z,17.40
2019-06-27T07:31:17.838Z,19.45
2019-06-27T07:33:42.835Z,17.05
2019-06-27T07:36:11.112Z,17.67
2019-06-27T07:38:39.135Z,18.75
2019-06-27T07:41:06.959Z,18.12
2019-06-27T07:43:35.505Z,19.67
2019-06-27T07:46:03.408Z,19.67
2019-06-27T07:48:31.285Z,21.48
2019-06-27T07:50:59.512Z,21.00
2019-06-27T07:53:27.805Z,22.07
2019-06-27T07:55:55.731Z,22.82
2019-06-27T07:58:24.374Z,22.40
2019-06-27T08:00:52.611Z,23.02
2019-06-27T08:03:21.382Z,23.20
2019-06-27T08:05:49.691Z,25.23
2019-06-27T08:08:17.956Z,24.77
2019-06-27T08:10:46.205Z,24.65
2019-06-27T08:13:14.976Z,24.15
2019-06-27T08:15:43.411Z,24.15
2019-06-27T08:18:12.025Z,25.35
2019-06-27T08:20:40.793Z,26.68
2019-06-27T08:23:09.160Z,27.15
2019-06-27T08:25:37.488Z,27.75
2019-06-27T08:28:05.385Z,27.73
2019-06-27T08:30:33.315Z,27.32
2019-06-27T08:33:01.143Z,27.05
2019-06-27T08:35:33.422Z,27.90
2019-06-27T08:38:00.439Z,28.00
2019-06-27T08:40:28.967Z,26.73
2019-06-27T08:42:56.810Z,27.60
2019-06-27T08:45:24.881Z,26.87
2019-06-27T08:47:52.722Z,25.57
2019-06-27T08:50:21.446Z,27.58
2019-06-27T08:52:49.385Z,27.67
2019-06-27T08:55:17.723Z,27.22
2019-06-27T08:57:45.574Z,27.67
2019-06-27T09:00:13.310Z,28.10
2019-06-27T09:02:41.282Z,29.92
2019-06-27T09:05:09.155Z,27.87
2019-06-27T09:07:37.888Z,29.65
2019-06-27T09:10:06.542Z,28.02
2019-06-27T09:12:34.406Z,27.48
2019-06-27T09:15:02.663Z,26.65
2019-06-27T09:17:31.021Z,30.12
2019-06-27T09:19:59.780Z,28.20
2019-06-27T09:22:28.140Z,26.82
2019-06-27T09:24:56.440Z,26.15
2019-06-27T09:27:24.624Z,25.62
2019-06-27T09:29:53.214Z,25.95
2019-06-27T09:32:25.951Z,24.95
2019-06-27T09:34:51.946Z,24.23
2019-06-27T09:37:20.508Z,25.17
2019-06-27T09:39:48.711Z,23.67
2019-06-27T09:42:17.291Z,22.32
2019-06-27T09:44:45.665Z,23.00
2019-06-27T09:47:14.209Z,24.07
2019-06-27T09:49:42.551Z,23.02
2019-06-27T09:52:10.718Z,23.30
2019-06-27T09:54:38.908Z,26.12
2019-06-27T09:57:07.167Z,23.45
2019-06-27T09:59:35.758Z,24.82
2019-06-27T10:02:04.063Z,21.75
2019-06-27T10:04:31.985Z,23.50
2019-06-27T10:07:00.307Z,21.93
2019-06-27T10:09:29.063Z,23.60
2019-06-27T10:11:56.678Z,22.60
2019-06-27T10:14:25.168Z,22.60
2019-06-27T10:16:53.146Z,23.20
2019-06-27T10:19:21.163Z,23.92
2019-06-27T10:21:49.486Z,22.82
2019-06-27T10:24:17.776Z,23.80
2019-06-27T10:26:45.325Z,23.38
2019-06-27T10:29:13.268Z,23.50
2019-06-27T10:31:41.707Z,23.67
2019-06-27T10:34:10.409Z,23.98
2019-06-27T10:36:39.078Z,22.27
2019-06-27T10:39:06.261Z,22.32
2019-06-27T10:41:34.157Z,23.15
2019-06-27T10:44:02.492Z,23.62
2019-06-27T10:46:30.780Z,22.20
2019-06-27T10:48:59.063Z,22.58
2019-06-27T10:51:27.647Z,21.05
2019-06-27T10:53:56.249Z,22.22
2019-06-27T10:56:24.519Z,22.30
2019-06-27T10:58:52.823Z,21.90
2019-06-27T11:01:21.410Z,22.50
2019-06-27T11:03:49.730Z,21.73
2019-06-27T11:06:17.619Z,20.72
2019-06-27T11:08:46.230Z,21.70
2019-06-27T11:11:14.105Z,21.27
2019-06-27T11:13:57.975Z,19.98
2019-06-27T11:16:13.233Z,20.35
2019-06-27T11:18:41.778Z,20.37
2019-06-27T11:21:13.668Z,19.52
2019-06-27T11:23:40.223Z,18.75
2019-06-27T11:26:09.640Z,20.90
2019-06-27T11:28:38.432Z,20.00
2019-06-27T11:31:07.033Z,19.15
2019-06-27T11:33:35.283Z,18.55
2019-06-27T11:36:03.701Z,18.23
2019-06-27T11:38:32.172Z,18.45
2019-06-27T11:41:00.119Z,19.25
2019-06-27T11:43:28.713Z,18.30
2019-06-27T11:45:57.320Z,18.90
2019-06-27T11:48:25.634Z,17.15
2019-06-27T11:50:54.208Z,18.35
2019-06-27T11:53:22.518Z,18.50
2019-06-27T11:55:50.864Z,18.82
2019-06-27T11:58:19.503Z,20.90
2019-06-27T12:00:47.832Z,18.65
2019-06-27T12:03:15.721Z,18.85
2019-06-27T12:05:43.997Z,18.23
2019-06-27T12:08:12.672Z,19.02
2019-06-27T12:10:40.961Z,19.48
2019-06-27T12:13:09.172Z,20.23
2019-06-27T12:15:37.432Z,20.37
2019-06-27T12:18:05.602Z,19.40
2019-06-27T12:20:33.168Z,18.60
2019-06-27T12:23:01.041Z,18.65
2019-06-27T12:25:29.383Z,18.90
2019-06-27T12:27:57.601Z,19.05
2019-06-27T12:30:26.364Z,18.10
2019-06-27T12:32:54.907Z,19.23
2019-06-27T12:35:23.164Z,18.92
2019-06-27T12:37:51.134Z,17.95
2019-06-27T12:40:19.248Z,17.48
2019-06-27T12:42:48.550Z,17.73
2019-06-27T12:45:17.331Z,17.57
2019-06-27T12:47:45.618Z,17.50
2019-06-27T12:50:16.103Z,16.87
2019-06-27T12:52:44.420Z,17.70
2019-06-27T12:55:12.184Z,17.55
2019-06-27T12:57:40.805Z,17.77
2019-06-27T13:00:09.810Z,17.62
2019-06-27T13:02:38.122Z,17.30
2019-06-27T13:05:07.042Z,16.05
2019-06-27T13:07:35.663Z,16.87
2019-06-27T13:10:03.591Z,17.20
2019-06-27T13:12:31.574Z,16.40
2019-06-27T13:14:59.832Z,16.42
2019-06-27T13:17:27.879Z,17.23
2019-06-27T13:19:55.652Z,16.25
2019-06-27T13:22:23.695Z,17.50
2019-06-27T13:24:51.996Z,16.52
2019-06-27T13:27:20.680Z,16.52
2019-06-27T13:29:48.580Z,16.55
2019-06-27T13:32:16.947Z,15.32
2019-06-27T13:34:45.105Z,15.48
2019-06-27T13:37:13.103Z,14.83
2019-06-27T13:39:41.397Z,13.95
2019-06-27T13:42:10.049Z,14.65
2019-06-27T13:44:38.338Z,14.73
2019-06-27T13:47:09.649Z,15.55
2019-06-27T13:49:37.899Z,13.98
2019-06-27T13:52:05.854Z,13.48
2019-06-27T13:54:34.432Z,13.08
2019-06-27T13:57:02.645Z,13.88
2019-06-27T13:59:30.905Z,12.88
2019-06-27T14:01:59.251Z,12.35
2019-06-27T14:04:27.155Z,13.45
2019-06-27T14:06:55.968Z,13.08
2019-06-27T14:09:24.601Z,12.45
2019-06-27T14:11:53.232Z,12.45
2019-06-27T14:14:20.882Z,11.75
2019-06-27T14:16:49.486Z,11.65
2019-06-27T14:21:40.500Z,12.15
2019-06-27T14:24:09.147Z,12.05
2019-06-27T14:26:37.821Z,11.22
2019-06-27T14:29:06.076Z,11.33
2019-06-27T14:31:34.659Z,10.93
2019-06-27T14:34:03.070Z,10.48
2019-06-27T14:36:31.264Z,9.95
2019-06-27T14:38:59.766Z,10.30
2019-06-27T14:41:28.006Z,10.10
2019-06-27T14:43:56.536Z,9.40
2019-06-27T14:46:24.099Z,9.28
2019-06-27T14:48:51.999Z,9.55
2019-06-27T14:51:19.929Z,9.65
2019-06-27T14:53:47.493Z,9.15
2019-06-27T14:56:16.149Z,9.43
2019-06-27T14:58:44.449Z,9.33
2019-06-27T15:01:12.581Z,8.98
2019-06-27T15:03:41.220Z,9.15
2019-06-27T15:06:12.231Z,9.28
2019-06-27T15:08:39.634Z,9.60
2019-06-27T15:11:07.515Z,9.88
2019-06-27T15:13:36.012Z,9.83
2019-06-27T15:16:11.708Z,9.75
2019-06-27T15:18:34.699Z,10.13
2019-06-27T15:21:03.334Z,10.10
2019-06-27T15:23:31.809Z,9.70
2019-06-27T15:26:00.128Z,9.93
2019-06-27T15:28:28.365Z,9.85
2019-06-27T15:30:56.638Z,10.32
2019-06-27T15:33:25.353Z,10.25
2019-06-27T15:35:53.639Z,10.03
2019-06-27T15:38:22.417Z,10.28
2019-06-27T15:40:50.801Z,9.73
2019-06-27T15:43:19.017Z,10.60
2019-06-27T15:45:47.404Z,10.28
2019-06-27T15:48:15.946Z,9.80
2019-06-27T15:50:44.524Z,10.10
2019-06-27T15:53:12.741Z,10.60
2019-06-27T15:55:40.610Z,9.78
2019-06-27T15:58:08.199Z,10.40
2019-06-27T16:00:39.323Z,10.10
2019-06-27T16:03:06.759Z,10.18
2019-06-27T16:05:35.086Z,10.15
2019-06-27T16:08:03.881Z,11.05
2019-06-27T16:10:32.105Z,10.23
2019-06-27T16:13:02.723Z,9.75
2019-06-27T16:15:31.134Z,9.70
2019-06-27T16:17:59.813Z,10.00
2019-06-27T16:20:27.620Z,11.03
2019-06-27T16:22:55.887Z,11.12
2019-06-27T16:25:24.390Z,11.63
2019-06-27T16:27:53.030Z,12.05
2019-06-27T16:30:21.559Z,12.00
2019-06-27T16:32:49.504Z,12.37
2019-06-27T16:35:18.025Z,12.85
2019-06-27T16:37:46.008Z,13.38
2019-06-27T16:40:14.252Z,12.07
2019-06-27T16:42:42.789Z,13.43
2019-06-27T16:45:11.060Z,13.15
2019-06-27T16:47:39.403Z,14.25
2019-06-27T16:50:07.685Z,13.53
2019-06-27T16:52:36.274Z,14.53
2019-06-27T16:55:05.385Z,14.55
2019-06-27T16:57:33.361Z,15.10
2019-06-27T17:00:01.638Z,14.33
2019-06-27T17:02:29.521Z,14.98
2019-06-27T17:04:58.153Z,14.85
2019-06-27T17:07:26.422Z,14.58
2019-06-27T17:09:55.058Z,14.80
2019-06-27T17:12:23.950Z,15.15
2019-06-27T17:14:52.246Z,15.90
2019-06-27T17:17:20.874Z,14.80
2019-06-27T17:19:49.440Z,14.30
2019-06-27T17:22:18.120Z,14.75
2019-06-27T17:24:46.418Z,14.75
2019-06-27T17:27:15.026Z,14.55
2019-06-27T17:29:43.679Z,14.90
2019-06-27T17:32:12.413Z,14.47
2019-06-27T17:34:40.803Z,14.38
2019-06-27T17:37:09.141Z,15.40
2019-06-27T17:39:37.457Z,15.45
2019-06-27T17:42:05.835Z,14.63
2019-06-27T17:44:33.749Z,14.93
2019-06-27T17:47:02.369Z,14.50
2019-06-27T17:49:30.641Z,14.85
2019-06-27T17:51:59.247Z,13.48
2019-06-27T17:54:27.864Z,13.72
2019-06-27T17:56:55.821Z,14.47
2019-06-27T17:59:23.463Z,14.00
2019-06-27T18:01:51.665Z,13.93
2019-06-27T18:04:20.138Z,14.47
2019-06-27T18:06:48.945Z,14.28
2019-06-27T18:09:17.640Z,13.90
2019-06-27T18:11:45.915Z,13.10
2019-06-27T18:14:14.241Z,13.50
2019-06-27T18:16:42.831Z,13.20
2019-06-27T18:19:10.661Z,12.50
2019-06-27T18:21:39.046Z,12.85
2019-06-27T18:24:07.829Z,12.70
2019-06-27T18:26:36.109Z,13.50
2019-06-27T18:29:04.632Z,11.60
2019-06-27T18:31:32.873Z,10.82
2019-06-27T18:34:01.267Z,10.18
2019-06-27T18:36:29.796Z,9.98
2019-06-27T18:38:57.638Z,9.88
2019-06-27T18:41:26.331Z,8.63
2019-06-27T18:43:54.936Z,9.10
2019-06-27T18:46:23.482Z,8.18
2019-06-27T18:48:52.277Z,8.90
2019-06-27T18:51:20.561Z,8.45
2019-06-27T18:53:48.542Z,7.80
2019-06-27T18:56:16.392Z,7.45
2019-06-27T18:58:45.038Z,7.12
2019-06-27T19:01:13.305Z,7.30
2019-06-27T19:03:41.912Z,7.08
2019-06-27T19:06:10.479Z,6.50
2019-06-27T19:08:38.335Z,6.90
2019-06-27T19:11:05.906Z,7.20
2019-06-27T19:13:34.313Z,5.55
2019-06-27T19:16:03.049Z,5.42
2019-06-27T19:18:49.084Z,5.65
2019-06-27T19:21:22.485Z,5.17
2019-06-27T19:23:59.251Z,5.33
2019-06-27T19:26:27.837Z,4.78
2019-06-27T19:28:56.526Z,4.93
2019-06-27T19:31:25.221Z,5.23
2019-06-27T19:33:53.297Z,4.70
2019-06-27T19:36:21.167Z,5.10
2019-06-27T19:38:49.750Z,4.47
2019-06-27T19:41:18.184Z,4.13
2019-06-27T19:43:46.858Z,4.30
2019-06-27T19:46:14.724Z,4.17
2019-06-27T19:48:45.616Z,4.10
2019-06-27T19:51:13.125Z,3.93
2019-06-27T19:53:41.327Z,3.95
2019-06-27T19:56:09.203Z,3.80
2019-06-27T19:58:37.805Z,3.87
2019-06-27T20:01:06.145Z,4.17
2019-06-27T20:03:34.838Z,4.33
2019-06-27T20:06:03.335Z,3.93
2019-06-27T20:08:31.290Z,3.87
2019-06-27T20:10:59.467Z,3.57
2019-06-27T20:13:27.062Z,3.90
2019-06-27T20:15:55.716Z,4.20
2019-06-27T20:18:23.792Z,3.73
2019-06-27T20:20:51.985Z,3.63
2019-06-27T20:23:20.269Z,3.57
2019-06-27T20:25:48.954Z,3.87
2019-06-27T20:28:17.644Z,3.87
2019-06-27T20:30:45.940Z,3.80
2019-06-27T20:33:13.907Z,4.00
2019-06-27T20:35:42.557Z,3.53
2019-06-27T20:38:11.096Z,3.40
2019-06-27T20:40:39.370Z,3.67
2019-06-27T20:43:07.861Z,3.50
2019-06-27T20:45:36.338Z,3.80
2019-06-27T20:48:05.034Z,3.37
2019-06-27T20:50:33.271Z,3.93
2019-06-27T20:53:01.637Z,3.50
2019-06-27T20:55:29.938Z,3.40
2019-06-27T20:57:58.201Z,3.50
2019-06-27T21:00:26.473Z,3.23
2019-06-27T21:02:54.348Z,3.60
2019-06-27T21:05:22.289Z,3.37
2019-06-27T21:07:50.581Z,3.40
2019-06-27T21:10:19.424Z,3.40
2019-06-27T21:12:47.245Z,3.07
2019-06-27T21:15:15.408Z,3.27
2019-06-27T21:17:43.703Z,3.27
2019-06-27T21:20:11.946Z,3.70
2019-06-27T21:22:40.469Z,3.57
2019-06-27T21:25:09.314Z,3.30
2019-06-27T21:27:37.185Z,4.00
2019-06-27T21:30:06.500Z,3.57
2019-06-27T21:32:35.167Z,3.50
2019-06-27T21:35:03.110Z,3.60
2019-06-27T21:37:31.641Z,3.03
2019-06-27T21:40:00.292Z,3.10
2019-06-27T21:42:28.979Z,3.00
2019-06-27T21:44:56.842Z,3.40
2019-06-27T21:47:25.427Z,2.80
2019-06-27T21:49:53.314Z,3.10
2019-06-27T21:52:21.175Z,2.87
2019-06-27T21:54:49.097Z,2.43
2019-06-27T21:57:17.239Z,2.77
2019-06-27T21:59:45.391Z,2.73
2019-06-27T22:02:13.949Z,2.40
2019-06-27T22:04:42.194Z,2.87
2019-06-27T22:07:10.459Z,2.83
2019-06-27T22:09:38.675Z,2.47
2019-06-27T22:12:07.262Z,2.63
2019-06-27T22:14:35.435Z,2.70
2019-06-27T22:17:03.702Z,2.30
2019-06-27T22:19:32.291Z,2.37
2019-06-27T22:22:00.807Z,2.37
2019-06-27T22:24:28.659Z,2.03
2019-06-27T22:26:56.182Z,1.90
2019-06-27T22:29:24.501Z,2.03
2019-06-27T22:31:52.368Z,2.23
2019-06-27T22:34:20.517Z,2.03
2019-06-27T22:36:48.718Z,2.40
2019-06-27T22:39:40.519Z,2.03
2019-06-27T22:42:23.052Z,2.10
2019-06-27T22:45:09.661Z,2.07
2019-06-27T22:47:55.957Z,2.00
2019-06-27T22:50:42.028Z,2.30
2019-06-27T22:53:14.759Z,2.00
2019-06-27T22:55:43.407Z,2.20
2019-06-27T22:58:12.034Z,3.10
2019-06-27T23:00:39.856Z,2.70
2019-06-27T23:03:07.330Z,2.67
2019-06-27T23:05:36.035Z,2.43
2019-06-27T23:08:04.214Z,2.37
2019-06-27T23:10:32.484Z,2.43
2019-06-27T23:13:00.872Z,2.50
2019-06-27T23:15:29.043Z,2.30
2019-06-27T23:17:57.659Z,2.33
2019-06-27T23:20:26.303Z,2.43
2019-06-27T23:22:54.126Z,2.67
2019-06-27T23:25:21.978Z,2.70
2019-06-27T23:27:50.262Z,2.60
2019-06-27T23:30:18.203Z,2.07
2019-06-27T23:32:46.419Z,2.60
2019-06-27T23:35:14.392Z,2.50
2019-06-27T23:37:41.943Z,3.10
2019-06-27T23:40:14.469Z,2.77
2019-06-27T23:42:40.777Z,2.63
2019-06-27T23:45:09.977Z,3.07
2019-06-27T23:47:38.560Z,3.50
2019-06-27T23:50:07.675Z,3.00
2019-06-27T23:52:35.955Z,3.03
2019-06-27T23:55:04.328Z,2.50
2019-06-27T23:57:31.825Z,2.63
